Terminal Aerodrome Forecast
Issued by NWS Charleston, WV

Current Version | Previous Version | Graphics & Text | Print | Product List | Glossary On
Versions: 1 2 3 4 5 6 7 8 9 10 11 12 13 14 15 16 17 18 19 20 21
000
FTUS41 KRLX 122300
TAFPKB
TAF
KPKB 122331Z 1300/1324 21003KT P6SM BKN120
     FM130800 21006KT 6SM HZ SCT050 BKN100
     FM131400 23012G22KT 6SM HZ BKN040 BKN080
     FM132100 22010G20KT 5SM TSRA BR BKN030CB BKN080=

USA.gov is the U.S. government's official web portal to all federal, state and local government web resources and services.